PWSweather.com
Personal Weather Stations
Station Observations
KFLWINTE111
Tuscawilla, Winter Springs, FL 32708

TuscawillaWinter Springs, FL 32708

Lat: 28.677427, Lon: -81.241215

Elevation: 30

Station Type: Ambient Weather WS-2902A

Latest ConditionsUpdated 4:50:05 PM EDT Wednesday, Apr 24, 2019
Currently Today's Max Today's Min Today's Average
Temperature 87.4°F30.8°C 87.4°F30.8°C 55.6°F13.1°C 69.3°F20.7°C
Dew Point 62.2°F16.8°C 67.5°F19.7°C 55.2°F12.9°C 60.1°F15.6°C
Winds 0.9 mph W1.4 kmh W 3.6 mph -5.8 kmh - - 0.5 mph 0.8 kmh
Wind Gusts 3.4 mph5.5 kmh 6.9 mph11.1 kmh - -
Humidity 43% 99% 39% 78%
Pressure 29.99 in1015.6 mb 30.10 in1019.3 mb 29.99 in1015.6 mb -
Precipitation - 0.05 in1.3 mm - -
Hour Temp Dew Point Humidity Winds Wind Gusts Pressure Precip Precip Rate Daily Precip Total
04:50 PM 87.4°F30.8°C 62.2°F16.8°C 43% 0.9 mph W1.4 kmh W 3.4 mph5.5 kmh 29.99 in1015.6 mb 0.00 in0.0 mm 0.00 in0.0 mm 0.05 in1.3 mm
04:40 PM 86.7°F30.4°C 60.8°F16.0°C 42% 1.3 mph SW2.1 kmh SW 4.5 mph7.2 kmh 29.99 in1015.6 mb 0.00 in0.0 mm 0.00 in0.0 mm 0.05 in1.3 mm
04:29 PM 86.9°F30.5°C 62.4°F16.9°C 44% 0.2 mph W0.3 kmh W 5.8 mph9.3 kmh 30.00 in1015.9 mb 0.00 in0.0 mm 0.00 in0.0 mm 0.05 in1.3 mm
04:19 PM 86.0°F30.0°C 63.5°F17.5°C 47% 0.4 mph W0.6 kmh W 4.5 mph7.2 kmh 29.99 in1015.6 mb 0.00 in0.0 mm 0.00 in0.0 mm 0.05 in1.3 mm
04:09 PM 86.0°F30.0°C 61.5°F16.4°C 44% 1.3 mph WSW2.1 kmh WSW 5.8 mph9.3 kmh 30.00 in1015.9 mb 0.00 in0.0 mm 0.00 in0.0 mm 0.05 in1.3 mm
03:59 PM 86.7°F30.4°C 62.8°F17.1°C 45% 0.4 mph W0.6 kmh W 4.5 mph7.2 kmh 30.01 in1016.3 mb 0.00 in0.0 mm 0.00 in0.0 mm 0.05 in1.3 mm
03:49 PM 86.0°F30.0°C 62.2°F16.8°C 45% 0.7 mph W1.1 kmh W 5.8 mph9.3 kmh 30.00 in1015.9 mb 0.00 in0.0 mm 0.00 in0.0 mm 0.05 in1.3 mm
03:39 PM 86.0°F30.0°C 61.0°F16.1°C 43% 1.1 mph WSW1.8 kmh WSW 4.5 mph7.2 kmh 30.00 in1015.9 mb 0.00 in0.0 mm 0.00 in0.0 mm 0.05 in1.3 mm
03:29 PM 86.2°F30.1°C 61.7°F16.5°C 44% 3.6 mph WNW5.8 kmh WNW 4.5 mph7.2 kmh 30.01 in1016.3 mb 0.00 in0.0 mm 0.00 in0.0 mm 0.05 in1.3 mm
03:19 PM 86.0°F30.0°C 62.2°F16.8°C 45% 0.4 mph W0.6 kmh W 5.8 mph9.3 kmh 30.01 in1016.3 mb 0.00 in0.0 mm 0.00 in0.0 mm 0.05 in1.3 mm
03:09 PM 85.8°F29.9°C 62.6°F17.0°C 46% 2.5 mph NW4.0 kmh NW 5.8 mph9.3 kmh 30.02 in1016.6 mb 0.00 in0.0 mm 0.00 in0.0 mm 0.05 in1.3 mm
02:59 PM 85.8°F29.9°C 62.6°F17.0°C 46% Calm Calm 4.5 mph7.2 kmh 30.02 in1016.6 mb 0.00 in0.0 mm 0.00 in0.0 mm 0.05 in1.3 mm
02:48 PM 84.9°F29.4°C 62.4°F16.9°C 47% 1.1 mph NW1.8 kmh NW 4.5 mph7.2 kmh 30.02 in1016.6 mb 0.00 in0.0 mm 0.00 in0.0 mm 0.05 in1.3 mm
02:38 PM 85.1°F29.5°C 60.1°F15.6°C 43% 0.7 mph ENE1.1 kmh ENE 5.8 mph9.3 kmh 30.03 in1016.9 mb 0.00 in0.0 mm 0.00 in0.0 mm 0.05 in1.3 mm
02:28 PM 85.3°F29.6°C 60.3°F15.7°C 43% 2.5 mph NNW4.0 kmh NNW 5.8 mph9.3 kmh 30.03 in1016.9 mb 0.00 in0.0 mm 0.00 in0.0 mm 0.05 in1.3 mm
02:18 PM 85.1°F29.5°C 62.1°F16.7°C 46% 0.2 mph W0.3 kmh W 3.4 mph5.5 kmh 30.04 in1017.3 mb 0.00 in0.0 mm 0.00 in0.0 mm 0.05 in1.3 mm
02:08 PM 84.9°F29.4°C 61.9°F16.6°C 46% 0.7 mph WNW1.1 kmh WNW 6.9 mph11.1 kmh 30.04 in1017.3 mb 0.00 in0.0 mm 0.00 in0.0 mm 0.05 in1.3 mm
01:58 PM 84.6°F29.2°C 59.0°F15.0°C 42% 2.0 mph WNW3.2 kmh WNW 5.8 mph9.3 kmh 30.05 in1017.6 mb 0.00 in0.0 mm 0.00 in0.0 mm 0.05 in1.3 mm
01:48 PM 84.4°F29.1°C 59.4°F15.2°C 43% 0.2 mph NE0.3 kmh NE 6.9 mph11.1 kmh 30.05 in1017.6 mb 0.00 in0.0 mm 0.00 in0.0 mm 0.05 in1.3 mm
01:38 PM 83.8°F28.8°C 56.3°F13.5°C 39% 1.3 mph WNW2.1 kmh WNW 4.5 mph7.2 kmh 30.05 in1017.6 mb 0.00 in0.0 mm 0.00 in0.0 mm 0.05 in1.3 mm
01:28 PM 84.0°F28.9°C 58.5°F14.7°C 42% 0.4 mph NNW0.6 kmh NNW 3.4 mph5.5 kmh 30.06 in1017.9 mb 0.00 in0.0 mm 0.00 in0.0 mm 0.05 in1.3 mm
01:18 PM 84.0°F28.9°C 57.7°F14.3°C 41% 0.9 mph WSW1.4 kmh WSW 5.8 mph9.3 kmh 30.06 in1017.9 mb 0.00 in0.0 mm 0.00 in0.0 mm 0.05 in1.3 mm
01:08 PM 83.5°F28.6°C 65.7°F18.7°C 55% 1.3 mph NW2.1 kmh NW -- 30.06 in1017.9 mb 0.00 in0.0 mm 0.00 in0.0 mm 0.05 in1.3 mm
01:00 PM 82.9°F28.3°C 64.0°F17.8°C 53% 0.7 mph WSW1.1 kmh WSW 4.5 mph7.2 kmh 30.06 in1017.9 mb 0.00 in0.0 mm 0.00 in0.0 mm 0.05 in1.3 mm
12:49 PM 82.9°F28.3°C 61.9°F16.6°C 49% 2.2 mph NE3.5 kmh NE 5.8 mph9.3 kmh 30.06 in1017.9 mb 0.00 in0.0 mm 0.00 in0.0 mm 0.05 in1.3 mm
12:39 PM 83.3°F28.5°C 62.1°F16.7°C 49% 1.6 mph ENE2.6 kmh ENE 3.4 mph5.5 kmh 30.07 in1018.3 mb 0.00 in0.0 mm 0.00 in0.0 mm 0.05 in1.3 mm
12:29 PM 82.0°F27.8°C 62.1°F16.7°C 51% 0.9 mph S1.4 kmh S 4.5 mph7.2 kmh 30.07 in1018.3 mb 0.00 in0.0 mm 0.00 in0.0 mm 0.05 in1.3 mm
12:19 PM 82.2°F27.9°C 61.7°F16.5°C 50% 1.8 mph NE2.9 kmh NE 2.2 mph3.5 kmh 30.08 in1018.6 mb 0.00 in0.0 mm 0.00 in0.0 mm 0.05 in1.3 mm
12:09 PM 81.5°F27.5°C 63.3°F17.4°C 54% Calm Calm 4.5 mph7.2 kmh 30.08 in1018.6 mb 0.00 in0.0 mm 0.00 in0.0 mm 0.05 in1.3 mm
11:59 AM 80.8°F27.1°C 64.0°F17.8°C 57% 1.1 mph SW1.8 kmh SW 3.4 mph5.5 kmh 30.09 in1019.0 mb 0.00 in0.0 mm 0.00 in0.0 mm 0.05 in1.3 mm
11:49 AM 80.4°F26.9°C 62.8°F17.1°C 55% 1.3 mph SW2.1 kmh SW 4.5 mph7.2 kmh 30.09 in1019.0 mb 0.00 in0.0 mm 0.00 in0.0 mm 0.05 in1.3 mm
11:39 AM 79.7°F26.5°C 64.6°F18.1°C 60% 1.1 mph SW1.8 kmh SW 3.4 mph5.5 kmh 30.09 in1019.0 mb 0.00 in0.0 mm 0.00 in0.0 mm 0.05 in1.3 mm
11:29 AM 79.5°F26.4°C 63.9°F17.7°C 59% 1.1 mph NW1.8 kmh NW 4.5 mph7.2 kmh 30.09 in1019.0 mb 0.00 in0.0 mm 0.00 in0.0 mm 0.05 in1.3 mm
11:19 AM 79.2°F26.2°C 64.0°F17.8°C 60% 1.3 mph NW2.1 kmh NW 4.5 mph7.2 kmh 30.10 in1019.3 mb 0.00 in0.0 mm 0.00 in0.0 mm 0.05 in1.3 mm
11:08 AM 80.6°F27.0°C 67.3°F19.6°C 64% Calm Calm 3.4 mph5.5 kmh 30.09 in1019.0 mb 0.00 in0.0 mm 0.00 in0.0 mm 0.05 in1.3 mm
10:58 AM 79.5°F26.4°C 63.5°F17.5°C 58% 1.6 mph S2.6 kmh S 2.2 mph3.5 kmh 30.10 in1019.3 mb 0.00 in0.0 mm 0.00 in0.0 mm 0.05 in1.3 mm
10:48 AM 77.9°F25.5°C 63.9°F17.7°C 62% 0.2 mph SE0.3 kmh SE 2.2 mph3.5 kmh 30.09 in1019.0 mb 0.00 in0.0 mm 0.00 in0.0 mm 0.05 in1.3 mm
10:38 AM 78.3°F25.7°C 66.0°F18.9°C 66% 0.2 mph WSW0.3 kmh WSW 2.2 mph3.5 kmh 30.09 in1019.0 mb 0.00 in0.0 mm 0.00 in0.0 mm 0.05 in1.3 mm
10:28 AM 77.2°F25.1°C 64.0°F17.8°C 64% 1.3 mph WSW2.1 kmh WSW 3.4 mph5.5 kmh 30.10 in1019.3 mb 0.00 in0.0 mm 0.00 in0.0 mm 0.05 in1.3 mm
10:18 AM 76.8°F24.9°C 63.7°F17.6°C 64% 2.0 mph SW3.2 kmh SW 4.5 mph7.2 kmh 30.09 in1019.0 mb 0.00 in0.0 mm 0.00 in0.0 mm 0.05 in1.3 mm
10:08 AM 75.4°F24.1°C 64.9°F18.3°C 70% 2.0 mph WSW3.2 kmh WSW 3.4 mph5.5 kmh 30.09 in1019.0 mb 0.00 in0.0 mm 0.00 in0.0 mm 0.05 in1.3 mm
09:58 AM 75.0°F23.9°C 64.9°F18.3°C 71% 2.2 mph SW3.5 kmh SW 3.4 mph5.5 kmh 30.09 in1019.0 mb 0.00 in0.0 mm 0.00 in0.0 mm 0.05 in1.3 mm
09:48 AM 74.8°F23.8°C 66.4°F19.1°C 75% 0.7 mph WSW1.1 kmh WSW 2.2 mph3.5 kmh 30.09 in1019.0 mb 0.00 in0.0 mm 0.00 in0.0 mm 0.05 in1.3 mm
09:37 AM 73.8°F23.2°C 66.0°F18.9°C 77% Calm Calm 2.2 mph3.5 kmh 30.09 in1019.0 mb 0.00 in0.0 mm 0.00 in0.0 mm 0.05 in1.3 mm
09:27 AM 73.0°F22.8°C 66.9°F19.4°C 81% 0.9 mph SW1.4 kmh SW 2.2 mph3.5 kmh 30.09 in1019.0 mb 0.00 in0.0 mm 0.00 in0.0 mm 0.05 in1.3 mm
09:17 AM 70.9°F21.6°C 65.8°F18.8°C 84% 0.2 mph NW0.3 kmh NW 1.1 mph1.8 kmh 30.09 in1019.0 mb 0.00 in0.0 mm 0.00 in0.0 mm 0.05 in1.3 mm
08:59 AM 67.8°F19.9°C 67.5°F19.7°C 99% Calm Calm -- 30.08 in1018.6 mb 0.00 in0.0 mm 0.00 in0.0 mm 0.05 in1.3 mm
08:48 AM 66.2°F19.0°C 65.8°F18.8°C 99% Calm Calm -- 30.07 in1018.3 mb 0.00 in0.0 mm 0.00 in0.0 mm 0.05 in1.3 mm
08:36 AM 66.2°F19.0°C 65.8°F18.8°C 99% Calm Calm -- 30.07 in1018.3 mb 0.00 in0.0 mm 0.00 in0.0 mm 0.05 in1.3 mm
08:26 AM 64.4°F18.0°C 64.0°F17.8°C 99% Calm Calm -- 30.08 in1018.6 mb 0.00 in0.0 mm 0.00 in0.0 mm 0.05 in1.3 mm
08:16 AM 63.3°F17.4°C 63.0°F17.2°C 99% Calm Calm -- 30.08 in1018.6 mb 0.00 in0.0 mm 0.00 in0.0 mm 0.05 in1.3 mm
08:06 AM 62.1°F16.7°C 61.7°F16.5°C 99% Calm Calm -- 30.09 in1019.0 mb 0.00 in0.0 mm 0.00 in0.0 mm 0.05 in1.3 mm
07:54 AM 59.2°F15.1°C 58.8°F14.9°C 99% Calm Calm -- 30.08 in1018.6 mb 0.00 in0.0 mm 0.00 in0.0 mm 0.05 in1.3 mm
07:44 AM 57.9°F14.4°C 57.6°F14.2°C 99% Calm Calm -- 30.07 in1018.3 mb 0.00 in0.0 mm 0.00 in0.0 mm 0.05 in1.3 mm
07:34 AM 56.1°F13.4°C 55.8°F13.2°C 99% Calm Calm -- 30.07 in1018.3 mb 0.00 in0.0 mm 0.00 in0.0 mm 0.05 in1.3 mm
07:24 AM 55.9°F13.3°C 55.6°F13.1°C 99% Calm Calm -- 30.07 in1018.3 mb 0.00 in0.0 mm 0.00 in0.0 mm 0.05 in1.3 mm
07:14 AM 55.8°F13.2°C 55.4°F13.0°C 99% Calm Calm -- 30.06 in1017.9 mb 0.00 in0.0 mm 0.00 in0.0 mm 0.05 in1.3 mm
07:03 AM 55.8°F13.2°C 55.4°F13.0°C 99% Calm Calm -- 30.06 in1017.9 mb 0.00 in0.0 mm 0.00 in0.0 mm 0.05 in1.3 mm
06:53 AM 55.8°F13.2°C 55.4°F13.0°C 99% Calm Calm -- 30.05 in1017.6 mb 0.00 in0.0 mm 0.00 in0.0 mm 0.05 in1.3 mm
06:43 AM 55.9°F13.3°C 55.6°F13.1°C 99% Calm Calm -- 30.06 in1017.9 mb 0.00 in0.0 mm 0.00 in0.0 mm 0.05 in1.3 mm
06:33 AM 55.8°F13.2°C 55.4°F13.0°C 99% Calm Calm -- 30.05 in1017.6 mb 0.00 in0.0 mm 0.00 in0.0 mm 0.05 in1.3 mm
06:23 AM 55.9°F13.3°C 55.6°F13.1°C 99% Calm Calm -- 30.04 in1017.3 mb 0.00 in0.0 mm 0.00 in0.0 mm 0.05 in1.3 mm
06:13 AM 55.9°F13.3°C 55.6°F13.1°C 99% Calm Calm -- 30.04 in1017.3 mb 0.00 in0.0 mm 0.00 in0.0 mm 0.05 in1.3 mm
06:03 AM 56.1°F13.4°C 55.8°F13.2°C 99% Calm Calm -- 30.05 in1017.6 mb 0.00 in0.0 mm 0.00 in0.0 mm 0.05 in1.3 mm
05:53 AM 55.6°F13.1°C 55.2°F12.9°C 99% Calm Calm -- 30.04 in1017.3 mb 0.00 in0.0 mm 0.00 in0.0 mm 0.05 in1.3 mm
05:42 AM 56.3°F13.5°C 55.9°F13.3°C 99% Calm Calm -- 30.04 in1017.3 mb 0.00 in0.0 mm 0.00 in0.0 mm 0.05 in1.3 mm
05:32 AM 56.3°F13.5°C 55.9°F13.3°C 99% Calm Calm -- 30.04 in1017.3 mb 0.00 in0.0 mm 0.00 in0.0 mm 0.05 in1.3 mm
05:17 AM 56.3°F13.5°C 55.9°F13.3°C 99% Calm Calm -- 30.04 in1017.3 mb 0.00 in0.0 mm 0.00 in0.0 mm 0.05 in1.3 mm
05:05 AM 56.1°F13.4°C 55.8°F13.2°C 99% Calm Calm -- 30.04 in1017.3 mb 0.00 in0.0 mm 0.00 in0.0 mm 0.05 in1.3 mm
04:55 AM 56.1°F13.4°C 55.8°F13.2°C 99% Calm Calm -- 30.04 in1017.3 mb 0.00 in0.0 mm 0.00 in0.0 mm 0.05 in1.3 mm
04:45 AM 55.9°F13.3°C 55.6°F13.1°C 99% Calm Calm -- 30.04 in1017.3 mb 0.00 in0.0 mm 0.00 in0.0 mm 0.05 in1.3 mm
04:35 AM 56.5°F13.6°C 56.1°F13.4°C 99% Calm Calm -- 30.04 in1017.3 mb 0.00 in0.0 mm 0.00 in0.0 mm 0.05 in1.3 mm
04:25 AM 56.5°F13.6°C 56.1°F13.4°C 99% Calm Calm -- 30.04 in1017.3 mb 0.00 in0.0 mm 0.00 in0.0 mm 0.05 in1.3 mm
04:15 AM 56.3°F13.5°C 55.9°F13.3°C 99% Calm Calm -- 30.04 in1017.3 mb 0.00 in0.0 mm 0.00 in0.0 mm 0.05 in1.3 mm
04:04 AM 56.7°F13.7°C 56.3°F13.5°C 99% Calm Calm -- 30.04 in1017.3 mb 0.00 in0.0 mm 0.00 in0.0 mm 0.05 in1.3 mm
03:54 AM 56.8°F13.8°C 56.5°F13.6°C 99% Calm Calm -- 30.04 in1017.3 mb 0.00 in0.0 mm 0.00 in0.0 mm 0.05 in1.3 mm
03:43 AM 56.5°F13.6°C 56.1°F13.4°C 99% Calm Calm -- 30.04 in1017.3 mb 0.00 in0.0 mm 0.00 in0.0 mm 0.05 in1.3 mm
03:33 AM 56.8°F13.8°C 56.5°F13.6°C 99% Calm Calm -- 30.05 in1017.6 mb 0.00 in0.0 mm 0.00 in0.0 mm 0.05 in1.3 mm
03:23 AM 56.3°F13.5°C 55.9°F13.3°C 99% Calm Calm -- 30.04 in1017.3 mb 0.00 in0.0 mm 0.00 in0.0 mm 0.05 in1.3 mm
03:13 AM 57.0°F13.9°C 56.7°F13.7°C 99% Calm Calm -- 30.04 in1017.3 mb 0.00 in0.0 mm 0.00 in0.0 mm 0.05 in1.3 mm
03:03 AM 56.8°F13.8°C 56.5°F13.6°C 99% Calm Calm -- 30.05 in1017.6 mb 0.00 in0.0 mm 0.00 in0.0 mm 0.05 in1.3 mm
02:53 AM 56.8°F13.8°C 56.5°F13.6°C 99% Calm Calm -- 30.05 in1017.6 mb 0.00 in0.0 mm 0.00 in0.0 mm 0.05 in1.3 mm
02:42 AM 57.4°F14.1°C 57.0°F13.9°C 99% Calm Calm -- 30.05 in1017.6 mb 0.00 in0.0 mm 0.00 in0.0 mm 0.05 in1.3 mm
02:32 AM 57.6°F14.2°C 57.2°F14.0°C 99% Calm Calm -- 30.06 in1017.9 mb 0.00 in0.0 mm 0.00 in0.0 mm 0.05 in1.3 mm
02:22 AM 57.6°F14.2°C 57.2°F14.0°C 99% Calm Calm -- 30.06 in1017.9 mb 0.01 in0.3 mm 0.00 in0.0 mm 0.05 in1.3 mm
02:12 AM 57.9°F14.4°C 57.6°F14.2°C 99% Calm Calm -- 30.06 in1017.9 mb 0.02 in0.5 mm 0.00 in0.0 mm 0.05 in1.3 mm
02:02 AM 57.9°F14.4°C 57.6°F14.2°C 99% Calm Calm -- 30.06 in1017.9 mb 0.04 in1.0 mm 0.00 in0.0 mm 0.05 in1.3 mm
01:52 AM 58.6°F14.8°C 58.3°F14.6°C 99% Calm Calm 1.1 mph1.8 kmh 30.06 in1017.9 mb 0.05 in1.3 mm 0.00 in0.0 mm 0.05 in1.3 mm
01:42 AM 58.3°F14.6°C 57.9°F14.4°C 99% Calm Calm -- 30.06 in1017.9 mb 0.05 in1.3 mm 0.00 in0.0 mm 0.05 in1.3 mm
01:32 AM 59.2°F15.1°C 58.8°F14.9°C 99% Calm Calm -- 30.06 in1017.9 mb 0.05 in1.3 mm 0.06 in1.5 mm 0.05 in1.3 mm
01:22 AM 59.2°F15.1°C 58.8°F14.9°C 99% Calm Calm -- 30.06 in1017.9 mb 0.04 in1.0 mm 0.06 in1.5 mm 0.04 in1.0 mm
01:12 AM 59.7°F15.4°C 59.4°F15.2°C 99% Calm Calm 1.1 mph1.8 kmh 30.06 in1017.9 mb 0.03 in0.8 mm 0.12 in3.0 mm 0.03 in0.8 mm
01:02 AM 60.1°F15.6°C 59.7°F15.4°C 99% Calm Calm 2.2 mph3.5 kmh 30.06 in1017.9 mb 0.01 in0.3 mm 0.01 in0.3 mm 0.01 in0.3 mm
12:52 AM 59.2°F15.1°C 58.8°F14.9°C 99% Calm Calm -- 30.07 in1018.3 mb 0.00 in0.0 mm 0.00 in0.0 mm 0.00 in0.0 mm
12:42 AM 59.4°F15.2°C 59.0°F15.0°C 99% Calm Calm -- 30.08 in1018.6 mb 0.00 in0.0 mm 0.00 in0.0 mm 0.00 in0.0 mm
12:32 AM 59.7°F15.4°C 59.4°F15.2°C 99% Calm Calm -- 30.08 in1018.6 mb 0.00 in0.0 mm 0.00 in0.0 mm 0.00 in0.0 mm
12:22 AM 60.3°F15.7°C 59.7°F15.4°C 98% Calm Calm -- 30.08 in1018.6 mb 0.00 in0.0 mm 0.00 in0.0 mm 0.00 in0.0 mm
12:12 AM 60.3°F15.7°C 59.7°F15.4°C 98% Calm Calm 1.1 mph1.8 kmh 30.09 in1019.0 mb 0.00 in0.0 mm 0.00 in0.0 mm 0.00 in0.0 mm
12:01 AM 60.6°F15.9°C 59.7°F15.4°C 97% Calm Calm -- 30.09 in1019.0 mb 0.00 in0.0 mm 0.00 in0.0 mm 0.00 in0.0 mm